PWSweather.com
Personal Weather Stations
Station Observations
IONTARIO88
Lincoln, ON L0R

Lincoln, ON L0R

Lat: 43.1763563, Lon: -79.4719525

Elevation: 297

Station Type: Davis Vantage Pro 2 Plus

http://www.beamsvillewx.ca

High Low Average
Temperature 36.1°F2.3°C 30.7°F-0.7°C 33.3°F0.7°C
Dew Point 31.5°F-0.3°C 24.7°F-4.1°C 28.5°F-1.9°C
Winds 7.0 mph 11.3 kmh Calm Calm 4.0 mph NE6.4 kmh NE
Wind Gusts 12.0 mph19.3 kmh 3.0 mph4.8 kmh 8.0 mph12.9 kmh
Humidity 87% 78% 82%
Pressure 30.69 in1039.3 mb 30.59 in1035.9 mb -
Precipitation 0.00 in0.0 mm - -
Hour Temp Dew Point Humidity Winds Wind Gusts Pressure Precip Precip Rate Daily Precip Total
12:00 AM 34.9°F1.6°C 28.7°F-1.8°C 78% 4.0 mph NNW6.4 kmh NNW 8.0 mph12.9 kmh 30.63 in1037.3 mb 0.00 in0.0 mm 0.00 in0.0 mm 0.23 in5.8 mm
12:15 AM 34.9°F1.6°C 28.1°F-2.2°C 76% 4.0 mph NNW6.4 kmh NNW 9.0 mph14.5 kmh 30.63 in1037.3 mb 0.00 in0.0 mm 0.00 in0.0 mm 0.23 in5.8 mm
12:30 AM 34.7°F1.5°C 27.9°F-2.3°C 76% 4.0 mph NNW6.4 kmh NNW 8.0 mph12.9 kmh 30.63 in1037.3 mb 0.00 in0.0 mm 0.00 in0.0 mm 0.23 in5.8 mm
12:45 AM 34.9°F1.6°C 29.6°F-1.3°C 81% 3.0 mph N4.8 kmh N 7.0 mph11.3 kmh 30.64 in1037.6 mb 0.00 in0.0 mm 0.00 in0.0 mm 0.23 in5.8 mm
01:00 AM 34.5°F1.4°C 29.3°F-1.5°C 81% 3.0 mph N4.8 kmh N 9.0 mph14.5 kmh 30.65 in1037.9 mb 0.00 in0.0 mm 0.00 in0.0 mm 0.00 in0.0 mm
01:15 AM 34.2°F1.2°C 28.6°F-1.9°C 80% 4.0 mph N6.4 kmh N 8.0 mph12.9 kmh 30.65 in1037.9 mb 0.00 in0.0 mm 0.00 in0.0 mm 0.00 in0.0 mm
01:30 AM 34.0°F1.1°C 28.8°F-1.8°C 81% 4.0 mph N6.4 kmh N 9.0 mph14.5 kmh 30.65 in1037.9 mb 0.00 in0.0 mm 0.00 in0.0 mm 0.00 in0.0 mm
01:45 AM 33.6°F0.9°C 28.4°F-2.0°C 81% 4.0 mph N6.4 kmh N 10.0 mph16.1 kmh 30.66 in1038.3 mb 0.00 in0.0 mm 0.00 in0.0 mm 0.00 in0.0 mm
02:00 AM 33.4°F0.8°C 27.9°F-2.3°C 80% 4.0 mph N6.4 kmh N 8.0 mph12.9 kmh 30.65 in1037.9 mb 0.00 in0.0 mm 0.00 in0.0 mm 0.00 in0.0 mm
02:15 AM 33.4°F0.8°C 28.2°F-2.1°C 81% 4.0 mph N6.4 kmh N 7.0 mph11.3 kmh 30.66 in1038.3 mb 0.00 in0.0 mm 0.00 in0.0 mm 0.00 in0.0 mm
02:30 AM 33.3°F0.7°C 27.8°F-2.3°C 80% 5.0 mph N8.0 kmh N 9.0 mph14.5 kmh 30.66 in1038.3 mb 0.00 in0.0 mm 0.00 in0.0 mm 0.00 in0.0 mm
02:45 AM 32.9°F0.5°C 27.4°F-2.6°C 80% 5.0 mph NNE8.0 kmh NNE 10.0 mph16.1 kmh 30.67 in1038.6 mb 0.00 in0.0 mm 0.00 in0.0 mm 0.00 in0.0 mm
03:00 AM 32.5°F0.3°C 27.4°F-2.6°C 81% 5.0 mph NNE8.0 kmh NNE 11.0 mph17.7 kmh 30.67 in1038.6 mb 0.00 in0.0 mm 0.00 in0.0 mm 0.00 in0.0 mm
03:15 AM 32.2°F0.1°C 26.7°F-2.9°C 80% 5.0 mph NNE8.0 kmh NNE 9.0 mph14.5 kmh 30.67 in1038.6 mb 0.00 in0.0 mm 0.00 in0.0 mm 0.00 in0.0 mm
03:30 AM 31.8°F-0.1°C 26.4°F-3.1°C 80% 5.0 mph N8.0 kmh N 10.0 mph16.1 kmh 30.66 in1038.3 mb 0.00 in0.0 mm 0.00 in0.0 mm 0.00 in0.0 mm
03:45 AM 31.8°F-0.1°C 26.4°F-3.1°C 80% 5.0 mph NNE8.0 kmh NNE 10.0 mph16.1 kmh 30.66 in1038.3 mb 0.00 in0.0 mm 0.00 in0.0 mm 0.00 in0.0 mm
04:00 AM 31.5°F-0.3°C 25.7°F-3.5°C 79% 6.0 mph NE9.7 kmh NE 11.0 mph17.7 kmh 30.66 in1038.3 mb 0.00 in0.0 mm 0.00 in0.0 mm 0.00 in0.0 mm
04:15 AM 31.3°F-0.4°C 25.5°F-3.6°C 79% 5.0 mph NNE8.0 kmh NNE 12.0 mph19.3 kmh 30.66 in1038.3 mb 0.00 in0.0 mm 0.00 in0.0 mm 0.00 in0.0 mm
04:30 AM 30.9°F-0.6°C 25.5°F-3.6°C 80% 4.0 mph NNE6.4 kmh NNE 9.0 mph14.5 kmh 30.66 in1038.3 mb 0.00 in0.0 mm 0.00 in0.0 mm 0.00 in0.0 mm
04:45 AM 30.7°F-0.7°C 24.7°F-4.1°C 78% 5.0 mph NNE8.0 kmh NNE 11.0 mph17.7 kmh 30.65 in1037.9 mb 0.00 in0.0 mm 0.00 in0.0 mm 0.00 in0.0 mm
05:00 AM 30.7°F-0.7°C 24.7°F-4.1°C 78% 5.0 mph NNE8.0 kmh NNE 10.0 mph16.1 kmh 30.66 in1038.3 mb 0.00 in0.0 mm 0.00 in0.0 mm 0.00 in0.0 mm
05:15 AM 30.9°F-0.6°C 25.5°F-3.6°C 80% 4.0 mph NNE6.4 kmh NNE 10.0 mph16.1 kmh 30.66 in1038.3 mb 0.00 in0.0 mm 0.00 in0.0 mm 0.00 in0.0 mm
05:30 AM 30.9°F-0.6°C 26.1°F-3.3°C 82% 3.0 mph NE4.8 kmh NE 8.0 mph12.9 kmh 30.65 in1037.9 mb 0.00 in0.0 mm 0.00 in0.0 mm 0.00 in0.0 mm
05:45 AM 30.9°F-0.6°C 25.8°F-3.4°C 81% 3.0 mph NE4.8 kmh NE 8.0 mph12.9 kmh 30.65 in1037.9 mb 0.00 in0.0 mm 0.00 in0.0 mm 0.00 in0.0 mm
06:00 AM 30.7°F-0.7°C 25.0°F-3.9°C 79% 4.0 mph NE6.4 kmh NE 8.0 mph12.9 kmh 30.65 in1037.9 mb 0.00 in0.0 mm 0.00 in0.0 mm 0.00 in0.0 mm
06:15 AM 30.7°F-0.7°C 25.6°F-3.6°C 81% 2.0 mph NE3.2 kmh NE 6.0 mph9.7 kmh 30.65 in1037.9 mb 0.00 in0.0 mm 0.00 in0.0 mm 0.00 in0.0 mm
06:30 AM 30.7°F-0.7°C 25.6°F-3.6°C 81% 4.0 mph NE6.4 kmh NE 8.0 mph12.9 kmh 30.64 in1037.6 mb 0.00 in0.0 mm 0.00 in0.0 mm 0.00 in0.0 mm
06:45 AM 30.9°F-0.6°C 25.8°F-3.4°C 81% 2.0 mph NE3.2 kmh NE 8.0 mph12.9 kmh 30.64 in1037.6 mb 0.00 in0.0 mm 0.00 in0.0 mm 0.00 in0.0 mm
07:00 AM 30.9°F-0.6°C 25.8°F-3.4°C 81% 3.0 mph NE4.8 kmh NE 6.0 mph9.7 kmh 30.65 in1037.9 mb 0.00 in0.0 mm 0.00 in0.0 mm 0.00 in0.0 mm
07:15 AM 30.9°F-0.6°C 25.8°F-3.4°C 81% 4.0 mph NE6.4 kmh NE 8.0 mph12.9 kmh 30.64 in1037.6 mb 0.00 in0.0 mm 0.00 in0.0 mm 0.00 in0.0 mm
07:30 AM 31.1°F-0.5°C 26.5°F-3.1°C 83% 3.0 mph NE4.8 kmh NE 8.0 mph12.9 kmh 30.65 in1037.9 mb 0.00 in0.0 mm 0.00 in0.0 mm 0.00 in0.0 mm
07:45 AM 31.3°F-0.4°C 26.4°F-3.1°C 82% 4.0 mph NE6.4 kmh NE 10.0 mph16.1 kmh 30.64 in1037.6 mb 0.00 in0.0 mm 0.00 in0.0 mm 0.00 in0.0 mm
08:00 AM 31.3°F-0.4°C 26.1°F-3.3°C 81% 4.0 mph NE6.4 kmh NE 7.0 mph11.3 kmh 30.64 in1037.6 mb 0.00 in0.0 mm 0.00 in0.0 mm 0.00 in0.0 mm
08:15 AM 31.1°F-0.5°C 26.0°F-3.3°C 81% 4.0 mph NE6.4 kmh NE 7.0 mph11.3 kmh 30.64 in1037.6 mb 0.00 in0.0 mm 0.00 in0.0 mm 0.00 in0.0 mm
08:30 AM 31.1°F-0.5°C 26.0°F-3.3°C 81% 3.0 mph NE4.8 kmh NE 9.0 mph14.5 kmh 30.63 in1037.3 mb 0.00 in0.0 mm 0.00 in0.0 mm 0.00 in0.0 mm
08:45 AM 31.3°F-0.4°C 26.1°F-3.3°C 81% 4.0 mph NE6.4 kmh NE 7.0 mph11.3 kmh 30.64 in1037.6 mb 0.00 in0.0 mm 0.00 in0.0 mm 0.00 in0.0 mm
09:00 AM 31.5°F-0.3°C 26.3°F-3.2°C 81% 3.0 mph NE4.8 kmh NE 7.0 mph11.3 kmh 30.65 in1037.9 mb 0.00 in0.0 mm 0.00 in0.0 mm 0.00 in0.0 mm
09:15 AM 31.8°F-0.1°C 26.7°F-2.9°C 81% 2.0 mph NE3.2 kmh NE 4.0 mph6.4 kmh 30.65 in1037.9 mb 0.00 in0.0 mm 0.00 in0.0 mm 0.00 in0.0 mm
09:30 AM 31.8°F-0.1°C 27.0°F-2.8°C 82% 2.0 mph NE3.2 kmh NE 5.0 mph8.0 kmh 30.65 in1037.9 mb 0.00 in0.0 mm 0.00 in0.0 mm 0.00 in0.0 mm
09:45 AM 32.4°F0.2°C 27.8°F-2.3°C 83% Calm Calm 3.0 mph4.8 kmh 30.65 in1037.9 mb 0.00 in0.0 mm 0.00 in0.0 mm 0.00 in0.0 mm
10:00 AM 32.5°F0.3°C 28.0°F-2.2°C 83% 3.0 mph NE4.8 kmh NE 6.0 mph9.7 kmh 30.65 in1037.9 mb 0.00 in0.0 mm 0.00 in0.0 mm 0.00 in0.0 mm
10:15 AM 32.7°F0.4°C 28.4°F-2.0°C 84% 2.0 mph NE3.2 kmh NE 5.0 mph8.0 kmh 30.64 in1037.6 mb 0.00 in0.0 mm 0.00 in0.0 mm 0.00 in0.0 mm
10:30 AM 32.7°F0.4°C 28.4°F-2.0°C 84% 2.0 mph NE3.2 kmh NE 6.0 mph9.7 kmh 30.65 in1037.9 mb 0.00 in0.0 mm 0.00 in0.0 mm 0.00 in0.0 mm
10:45 AM 33.1°F0.6°C 28.8°F-1.8°C 84% 2.0 mph NE3.2 kmh NE 5.0 mph8.0 kmh 30.65 in1037.9 mb 0.00 in0.0 mm 0.00 in0.0 mm 0.00 in0.0 mm
11:00 AM 33.3°F0.7°C 29.2°F-1.6°C 85% 1.0 mph NE1.6 kmh NE 4.0 mph6.4 kmh 30.65 in1037.9 mb 0.00 in0.0 mm 0.00 in0.0 mm 0.00 in0.0 mm
11:15 AM 33.6°F0.9°C 29.3°F-1.5°C 84% 2.0 mph NE3.2 kmh NE 5.0 mph8.0 kmh 30.65 in1037.9 mb 0.00 in0.0 mm 0.00 in0.0 mm 0.00 in0.0 mm
11:30 AM 33.8°F1.0°C 28.9°F-1.7°C 82% 3.0 mph NE4.8 kmh NE 7.0 mph11.3 kmh 30.65 in1037.9 mb 0.00 in0.0 mm 0.00 in0.0 mm 0.00 in0.0 mm
11:45 AM 34.0°F1.1°C 28.8°F-1.8°C 81% 3.0 mph NE4.8 kmh NE 7.0 mph11.3 kmh 30.65 in1037.9 mb 0.00 in0.0 mm 0.00 in0.0 mm 0.00 in0.0 mm
12:00 PM 34.2°F1.2°C 28.9°F-1.7°C 81% 4.0 mph NE6.4 kmh NE 8.0 mph12.9 kmh 30.65 in1037.9 mb 0.00 in0.0 mm 0.00 in0.0 mm 0.00 in0.0 mm
12:15 PM 34.2°F1.2°C 28.6°F-1.9°C 80% 4.0 mph ENE6.4 kmh ENE 8.0 mph12.9 kmh 30.66 in1038.3 mb 0.00 in0.0 mm 0.00 in0.0 mm 0.00 in0.0 mm
12:30 PM 34.5°F1.4°C 29.0°F-1.7°C 80% 4.0 mph NE6.4 kmh NE 9.0 mph14.5 kmh 30.67 in1038.6 mb 0.00 in0.0 mm 0.00 in0.0 mm 0.00 in0.0 mm
12:45 PM 34.5°F1.4°C 29.0°F-1.7°C 80% 4.0 mph NE6.4 kmh NE 8.0 mph12.9 kmh 30.67 in1038.6 mb 0.00 in0.0 mm 0.00 in0.0 mm 0.00 in0.0 mm
01:00 PM 34.7°F1.5°C 28.5°F-1.9°C 78% 5.0 mph NE8.0 kmh NE 11.0 mph17.7 kmh 30.68 in1038.9 mb 0.00 in0.0 mm 0.00 in0.0 mm 0.00 in0.0 mm
01:15 PM 34.9°F1.6°C 29.0°F-1.7°C 79% 5.0 mph NE8.0 kmh NE 9.0 mph14.5 kmh 30.66 in1038.3 mb 0.00 in0.0 mm 0.00 in0.0 mm 0.00 in0.0 mm
01:30 PM 34.5°F1.4°C 28.4°F-2.0°C 78% 5.0 mph ENE8.0 kmh ENE 9.0 mph14.5 kmh 30.68 in1038.9 mb 0.00 in0.0 mm 0.00 in0.0 mm 0.00 in0.0 mm
01:45 PM 34.7°F1.5°C 28.9°F-1.7°C 79% 4.0 mph NE6.4 kmh NE 10.0 mph16.1 kmh 30.69 in1039.3 mb 0.00 in0.0 mm 0.00 in0.0 mm 0.00 in0.0 mm
02:00 PM 34.9°F1.6°C 29.0°F-1.7°C 79% 4.0 mph ENE6.4 kmh ENE 8.0 mph12.9 kmh 30.68 in1038.9 mb 0.00 in0.0 mm 0.00 in0.0 mm 0.00 in0.0 mm
02:15 PM 34.9°F1.6°C 29.3°F-1.5°C 80% 4.0 mph ENE6.4 kmh ENE 9.0 mph14.5 kmh 30.67 in1038.6 mb 0.00 in0.0 mm 0.00 in0.0 mm 0.00 in0.0 mm
02:30 PM 35.2°F1.8°C 29.7°F-1.3°C 80% 4.0 mph ENE6.4 kmh ENE 11.0 mph17.7 kmh 30.67 in1038.6 mb 0.00 in0.0 mm 0.00 in0.0 mm 0.00 in0.0 mm
02:45 PM 35.8°F2.1°C 30.2°F-1.0°C 80% 5.0 mph ENE8.0 kmh ENE 10.0 mph16.1 kmh 30.65 in1037.9 mb 0.00 in0.0 mm 0.00 in0.0 mm 0.00 in0.0 mm
03:00 PM 35.6°F2.0°C 29.7°F-1.3°C 79% 5.0 mph ENE8.0 kmh ENE 11.0 mph17.7 kmh 30.64 in1037.6 mb 0.00 in0.0 mm 0.00 in0.0 mm 0.00 in0.0 mm
03:15 PM 35.1°F1.7°C 29.8°F-1.2°C 81% 6.0 mph ENE9.7 kmh ENE 12.0 mph19.3 kmh 30.64 in1037.6 mb 0.00 in0.0 mm 0.00 in0.0 mm 0.00 in0.0 mm
03:30 PM 35.2°F1.8°C 30.3°F-0.9°C 82% 6.0 mph NE9.7 kmh NE 11.0 mph17.7 kmh 30.62 in1036.9 mb 0.00 in0.0 mm 0.00 in0.0 mm 0.00 in0.0 mm
03:45 PM 35.1°F1.7°C 30.1°F-1.1°C 82% 5.0 mph NE8.0 kmh NE 10.0 mph16.1 kmh 30.63 in1037.3 mb 0.00 in0.0 mm 0.00 in0.0 mm 0.00 in0.0 mm
04:00 PM 34.9°F1.6°C 30.2°F-1.0°C 83% 7.0 mph NE11.3 kmh NE 12.0 mph19.3 kmh 30.62 in1036.9 mb 0.00 in0.0 mm 0.00 in0.0 mm 0.00 in0.0 mm
04:15 PM 35.6°F2.0°C 30.9°F-0.6°C 83% 4.0 mph NE6.4 kmh NE 10.0 mph16.1 kmh 30.62 in1036.9 mb 0.00 in0.0 mm 0.00 in0.0 mm 0.00 in0.0 mm
04:30 PM 36.0°F2.2°C 31.0°F-0.6°C 82% 5.0 mph NE8.0 kmh NE 10.0 mph16.1 kmh 30.62 in1036.9 mb 0.00 in0.0 mm 0.00 in0.0 mm 0.00 in0.0 mm
04:45 PM 36.1°F2.3°C 31.5°F-0.3°C 83% 4.0 mph NE6.4 kmh NE 9.0 mph14.5 kmh 30.61 in1036.6 mb 0.00 in0.0 mm 0.00 in0.0 mm 0.00 in0.0 mm
05:00 PM 36.1°F2.3°C 30.6°F-0.8°C 80% 5.0 mph ENE8.0 kmh ENE 9.0 mph14.5 kmh 30.61 in1036.6 mb 0.00 in0.0 mm 0.00 in0.0 mm 0.00 in0.0 mm
05:15 PM 36.0°F2.2°C 30.7°F-0.7°C 81% 4.0 mph NE6.4 kmh NE 9.0 mph14.5 kmh 30.64 in1037.6 mb 0.00 in0.0 mm 0.00 in0.0 mm 0.00 in0.0 mm
05:30 PM 35.1°F1.7°C 30.4°F-0.9°C 83% 4.0 mph NE6.4 kmh NE 7.0 mph11.3 kmh 30.62 in1036.9 mb 0.00 in0.0 mm 0.00 in0.0 mm 0.00 in0.0 mm
05:45 PM 34.7°F1.5°C 30.4°F-0.9°C 84% 3.0 mph NE4.8 kmh NE 7.0 mph11.3 kmh 30.62 in1036.9 mb 0.00 in0.0 mm 0.00 in0.0 mm 0.00 in0.0 mm
06:00 PM 34.9°F1.6°C 30.5°F-0.8°C 84% 3.0 mph NE4.8 kmh NE 7.0 mph11.3 kmh 30.63 in1037.3 mb 0.00 in0.0 mm 0.00 in0.0 mm 0.00 in0.0 mm
06:15 PM 34.5°F1.4°C 30.2°F-1.0°C 84% 6.0 mph NE9.7 kmh NE 11.0 mph17.7 kmh 30.62 in1036.9 mb 0.00 in0.0 mm 0.00 in0.0 mm 0.00 in0.0 mm
06:30 PM 34.2°F1.2°C 29.8°F-1.2°C 84% 6.0 mph ENE9.7 kmh ENE 11.0 mph17.7 kmh 30.63 in1037.3 mb 0.00 in0.0 mm 0.00 in0.0 mm 0.00 in0.0 mm
06:45 PM 34.2°F1.2°C 30.1°F-1.1°C 85% 5.0 mph NE8.0 kmh NE 12.0 mph19.3 kmh 30.63 in1037.3 mb 0.00 in0.0 mm 0.00 in0.0 mm 0.00 in0.0 mm
07:00 PM 33.6°F0.9°C 29.3°F-1.5°C 84% 5.0 mph ENE8.0 kmh ENE 10.0 mph16.1 kmh 30.62 in1036.9 mb 0.00 in0.0 mm 0.00 in0.0 mm 0.00 in0.0 mm
07:15 PM 33.4°F0.8°C 29.4°F-1.4°C 85% 4.0 mph ENE6.4 kmh ENE 10.0 mph16.1 kmh 30.62 in1036.9 mb 0.00 in0.0 mm 0.00 in0.0 mm 0.00 in0.0 mm
07:30 PM 33.3°F0.7°C 28.9°F-1.7°C 84% 5.0 mph ENE8.0 kmh ENE 10.0 mph16.1 kmh 30.63 in1037.3 mb 0.00 in0.0 mm 0.00 in0.0 mm 0.00 in0.0 mm
07:45 PM 33.4°F0.8°C 29.4°F-1.4°C 85% 4.0 mph ENE6.4 kmh ENE 9.0 mph14.5 kmh 30.64 in1037.6 mb 0.00 in0.0 mm 0.00 in0.0 mm 0.00 in0.0 mm
08:00 PM 33.4°F0.8°C 29.7°F-1.3°C 86% 4.0 mph ENE6.4 kmh ENE 8.0 mph12.9 kmh 30.62 in1036.9 mb 0.00 in0.0 mm 0.00 in0.0 mm 0.00 in0.0 mm
08:15 PM 33.4°F0.8°C 29.7°F-1.3°C 86% 4.0 mph ENE6.4 kmh ENE 9.0 mph14.5 kmh 30.64 in1037.6 mb 0.00 in0.0 mm 0.00 in0.0 mm 0.00 in0.0 mm
08:30 PM 33.4°F0.8°C 30.0°F-1.1°C 87% 3.0 mph NE4.8 kmh NE 7.0 mph11.3 kmh 30.63 in1037.3 mb 0.00 in0.0 mm 0.00 in0.0 mm 0.00 in0.0 mm
08:45 PM 33.4°F0.8°C 30.0°F-1.1°C 87% 2.0 mph NE3.2 kmh NE 4.0 mph6.4 kmh 30.62 in1036.9 mb 0.00 in0.0 mm 0.00 in0.0 mm 0.00 in0.0 mm
09:00 PM 33.3°F0.7°C 29.5°F-1.4°C 86% Calm Calm 3.0 mph4.8 kmh 30.62 in1036.9 mb 0.00 in0.0 mm 0.00 in0.0 mm 0.00 in0.0 mm
09:15 PM 33.4°F0.8°C 29.7°F-1.3°C 86% 1.0 mph NE1.6 kmh NE 4.0 mph6.4 kmh 30.62 in1036.9 mb 0.00 in0.0 mm 0.00 in0.0 mm 0.00 in0.0 mm
09:30 PM 33.4°F0.8°C 29.7°F-1.3°C 86% 1.0 mph NE1.6 kmh NE 4.0 mph6.4 kmh 30.63 in1037.3 mb 0.00 in0.0 mm 0.00 in0.0 mm 0.00 in0.0 mm
09:45 PM 33.6°F0.9°C 29.9°F-1.2°C 86% 1.0 mph NE1.6 kmh NE 4.0 mph6.4 kmh 30.63 in1037.3 mb 0.00 in0.0 mm 0.00 in0.0 mm 0.00 in0.0 mm
10:00 PM 34.0°F1.1°C 30.5°F-0.8°C 87% 2.0 mph ENE3.2 kmh ENE 7.0 mph11.3 kmh 30.63 in1037.3 mb 0.00 in0.0 mm 0.00 in0.0 mm 0.00 in0.0 mm
10:15 PM 34.0°F1.1°C 30.5°F-0.8°C 87% 4.0 mph E6.4 kmh E 8.0 mph12.9 kmh 30.62 in1036.9 mb 0.00 in0.0 mm 0.00 in0.0 mm 0.00 in0.0 mm
10:30 PM 33.8°F1.0°C 30.3°F-0.9°C 87% 3.0 mph ENE4.8 kmh ENE 7.0 mph11.3 kmh 30.62 in1036.9 mb 0.00 in0.0 mm 0.00 in0.0 mm 0.00 in0.0 mm
10:45 PM 33.6°F0.9°C 30.2°F-1.0°C 87% 3.0 mph ENE4.8 kmh ENE 8.0 mph12.9 kmh 30.63 in1037.3 mb 0.00 in0.0 mm 0.00 in0.0 mm 0.00 in0.0 mm
11:00 PM 33.6°F0.9°C 30.2°F-1.0°C 87% 2.0 mph ENE3.2 kmh ENE 5.0 mph8.0 kmh 30.63 in1037.3 mb 0.00 in0.0 mm 0.00 in0.0 mm 0.00 in0.0 mm
11:15 PM 33.4°F0.8°C 30.0°F-1.1°C 87% 4.0 mph NE6.4 kmh NE 9.0 mph14.5 kmh 30.62 in1036.9 mb 0.00 in0.0 mm 0.00 in0.0 mm 0.00 in0.0 mm
11:30 PM 33.3°F0.7°C 29.8°F-1.2°C 87% 4.0 mph ENE6.4 kmh ENE 9.0 mph14.5 kmh 30.62 in1036.9 mb 0.00 in0.0 mm 0.00 in0.0 mm 0.00 in0.0 mm
11:45 PM 33.3°F0.7°C 29.8°F-1.2°C 87% 4.0 mph ENE6.4 kmh ENE 9.0 mph14.5 kmh 30.62 in1036.9 mb 0.00 in0.0 mm 0.00 in0.0 mm 0.00 in0.0 mm